Time;durP1;ratioP1;P1;durP2;ratioP2;P2;SDS_P1;SDS_P2;PMS_P1;PMS_P2;Temp;Humidity;BMP_temperature;BMP_pressure;BME280_temperature;BME280_humidity;BME280_pressure;Samples;Min_cycle;Max_cycle;Signal;HPM_P1;HPM_P2
2023/09/18 00:00:49;;;;;;;;;;;16.10;99.90;;;;;;4936882;29;19931;-84
2023/09/18 00:03:17;;;;;;;;;;;16.10;99.90;;;;;;4935017;29;19953;-85
2023/09/18 00:05:43;;;;;;;;;;;16.10;99.90;;;;;;4945871;29;19927;-84
2023/09/18 00:08:08;;;;;;;;;;;16.10;99.90;;;;;;4936356;29;19934;-85
2023/09/18 00:10:34;;;;;;;;;;;16.00;99.90;;;;;;4938677;28;19935;-85
2023/09/18 00:13:01;;;;;;;;;;;16.00;99.90;;;;;;4934198;29;19930;-84
2023/09/18 00:15:26;;;;;;;;;;;16.00;99.90;;;;;;4935009;28;20645;-86
2023/09/18 00:17:52;;;;;;;;;;;16.00;99.90;;;;;;4936746;29;19926;-84
2023/09/18 00:20:18;;;;;;;;;;;16.00;99.90;;;;;;4935146;28;19927;-84
2023/09/18 00:22:44;;;;;;;;;;;16.10;99.90;;;;;;4935589;29;19927;-86
2023/09/18 00:25:10;;;;;;;;;;;16.00;99.90;;;;;;4935019;29;19927;-85
2023/09/18 00:27:36;;;;;;;;;;;16.00;99.90;;;;;;4938305;28;19935;-84
2023/09/18 00:30:03;;;;;;;;;;;16.10;99.90;;;;;;4937913;29;19938;-84
2023/09/18 00:32:29;;;;;;;;;;;16.20;99.90;;;;;;4938658;29;19927;-85
2023/09/18 00:34:55;;;;;;;;;;;16.20;99.90;;;;;;4937518;28;19927;-84
2023/09/18 00:37:20;;;;;;;;;;;16.30;99.90;;;;;;4937764;29;19926;-84
2023/09/18 00:39:46;;;;;;;;;;;16.30;99.90;;;;;;4938034;29;20380;-85
2023/09/18 00:42:16;;;;;;;;;;;16.40;99.90;;;;;;4937395;29;19942;-83
2023/09/18 00:44:41;;;;;;;;;;;16.50;99.90;;;;;;4934885;28;19974;-84
2023/09/18 00:47:07;;;;;;;;;;;16.60;99.90;;;;;;4933866;29;20001;-85
2023/09/18 00:49:34;;;;;;;;;;;16.50;99.90;;;;;;4933646;29;20445;-85
2023/09/18 00:51:59;;;;;;;;;;;16.60;99.90;;;;;;4987674;28;19959;-85
2023/09/18 00:54:25;;;;;;;;;;;16.50;99.90;;;;;;4933954;28;19969;-85
2023/09/18 00:56:53;;;;;;;;;;;16.50;99.90;;;;;;4933210;29;20401;-84
2023/09/18 00:59:19;;;;;;;;;;;16.50;99.90;;;;;;4935317;29;19931;-85
2023/09/18 01:01:45;;;;;;;;;;;16.50;99.90;;;;;;4933371;29;20022;-85
2023/09/18 01:04:13;;;;;;;;;;;16.50;99.90;;;;;;4934484;29;20348;-85
2023/09/18 01:06:38;;;;;;;;;;;16.50;99.90;;;;;;4932731;29;19950;-84
2023/09/18 01:09:11;;;;;;;;;;;16.50;99.90;;;;;;4933344;29;20370;-84
2023/09/18 01:11:56;;;;;;;;;;;16.50;99.90;;;;;;4934314;29;20014;-85
2023/09/18 01:14:24;;;;;;;;;;;16.50;99.90;;;;;;4933060;29;20348;-84
2023/09/18 01:16:55;;;;;;;;;;;16.50;99.90;;;;;;4931972;28;19927;-86
2023/09/18 01:19:37;;;;;;;;;;;16.50;99.90;;;;;;4916878;28;19931;-84
2023/09/18 01:22:03;;;;;;;;;;;16.60;99.90;;;;;;4932936;28;20046;-84
2023/09/18 01:24:29;;;;;;;;;;;16.70;99.90;;;;;;4932401;28;20408;-86
2023/09/18 01:26:55;;;;;;;;;;;16.70;99.90;;;;;;4932683;29;19927;-84
2023/09/18 01:29:20;;;;;;;;;;;16.80;99.90;;;;;;4932812;29;20267;-82
2023/09/18 01:31:48;;;;;;;;;;;16.80;99.90;;;;;;4932801;29;19935;-82
2023/09/18 01:34:16;;;;;;;;;;;16.80;99.90;;;;;;4916591;29;19938;-84
2023/09/18 01:36:41;;;;;;;;;;;16.80;99.90;;;;;;4931232;28;19927;-84
2023/09/18 01:39:10;;;;;;;;;;;16.80;99.90;;;;;;4931895;29;20378;-85
2023/09/18 01:41:36;;;;;;;;;;;16.80;99.90;;;;;;4932635;29;19934;-85
2023/09/18 01:44:02;;;;;;;;;;;16.90;99.90;;;;;;4945227;28;19937;-83
2023/09/18 01:46:28;;;;;;;;;;;16.90;99.90;;;;;;4969511;28;20037;-83
2023/09/18 01:48:53;;;;;;;;;;;16.90;99.90;;;;;;4933279;29;20025;-84
2023/09/18 01:51:19;;;;;;;;;;;16.90;99.90;;;;;;4934024;29;19933;-85
2023/09/18 01:53:44;;;;;;;;;;;16.90;99.90;;;;;;4933600;28;19930;-85
2023/09/18 01:56:10;;;;;;;;;;;16.90;99.90;;;;;;4933851;29;19981;-85
2023/09/18 01:58:36;;;;;;;;;;;16.90;99.90;;;;;;4931785;29;20017;-87
2023/09/18 02:01:01;;;;;;;;;;;17.00;99.90;;;;;;4933925;29;19931;-86
2023/09/18 02:03:27;;;;;;;;;;;17.00;99.90;;;;;;4932166;29;19927;-85
2023/09/18 02:05:52;;;;;;;;;;;17.00;99.90;;;;;;4932905;29;19962;-85
2023/09/18 02:08:18;;;;;;;;;;;16.90;99.90;;;;;;4932275;29;20664;-85
2023/09/18 02:10:43;;;;;;;;;;;17.00;99.90;;;;;;4932373;29;19927;-85
2023/09/18 02:13:10;;;;;;;;;;;17.00;99.90;;;;;;4933367;29;19927;-85
2023/09/18 02:15:37;;;;;;;;;;;16.90;99.90;;;;;;4933262;29;20432;-85
2023/09/18 02:18:02;;;;;;;;;;;17.00;99.90;;;;;;4919230;29;19966;-85
2023/09/18 02:20:28;;;;;;;;;;;17.00;99.90;;;;;;4931966;29;19978;-85
2023/09/18 02:22:53;;;;;;;;;;;17.00;99.90;;;;;;4947925;28;19934;-85
2023/09/18 02:25:19;;;;;;;;;;;17.00;99.90;;;;;;4930825;29;19930;-85
2023/09/18 02:27:44;;;;;;;;;;;17.00;99.90;;;;;;4930811;29;19926;-85
2023/09/18 02:30:10;;;;;;;;;;;17.00;99.90;;;;;;4932663;28;19973;-85
2023/09/18 02:32:36;;;;;;;;;;;17.00;99.90;;;;;;4932773;29;20248;-85
2023/09/18 02:35:02;;;;;;;;;;;16.90;99.90;;;;;;4931467;29;19938;-85
2023/09/18 02:37:29;;;;;;;;;;;17.00;99.90;;;;;;4932102;29;19934;-84
2023/09/18 02:39:54;;;;;;;;;;;17.00;99.90;;;;;;4916193;29;19927;-84
2023/09/18 02:42:20;;;;;;;;;;;17.00;99.90;;;;;;4931666;29;20073;-84
2023/09/18 02:44:45;;;;;;;;;;;17.00;99.90;;;;;;4932921;28;20322;-85
2023/09/18 02:47:11;;;;;;;;;;;17.00;99.90;;;;;;4932272;28;19974;-85
2023/09/18 02:49:37;;;;;;;;;;;17.10;99.90;;;;;;4931719;29;19998;-83
2023/09/18 02:52:03;;;;;;;;;;;17.00;99.90;;;;;;4931556;28;19927;-84
2023/09/18 02:54:28;;;;;;;;;;;17.00;99.90;;;;;;4932007;29;19953;-84
2023/09/18 02:56:54;;;;;;;;;;;17.00;99.90;;;;;;4931599;29;19980;-85
2023/09/18 02:59:19;;;;;;;;;;;17.00;99.90;;;;;;4932505;28;19927;-84
2023/09/18 03:01:45;;;;;;;;;;;17.00;99.90;;;;;;4932492;29;20022;-84
2023/09/18 03:04:10;;;;;;;;;;;17.10;99.90;;;;;;4928363;29;19927;-83
2023/09/18 03:06:39;;;;;;;;;;;17.00;99.90;;;;;;4931001;29;20013;-85
2023/09/18 03:09:04;;;;;;;;;;;17.10;99.90;;;;;;4920567;29;19931;-84
2023/09/18 03:11:30;;;;;;;;;;;17.10;99.90;;;;;;4931256;29;19927;-87
2023/09/18 03:13:55;;;;;;;;;;;17.10;99.90;;;;;;4926611;29;20013;-84
2023/09/18 03:16:21;;;;;;;;;;;17.10;99.90;;;;;;4923430;28;19997;-87
2023/09/18 03:18:46;;;;;;;;;;;17.10;99.90;;;;;;4926179;29;20010;-85
2023/09/18 03:21:12;;;;;;;;;;;17.10;99.90;;;;;;4927772;29;19981;-85
2023/09/18 03:23:38;;;;;;;;;;;17.20;99.90;;;;;;4932706;28;19964;-85
2023/09/18 03:26:03;;;;;;;;;;;17.20;99.90;;;;;;4928857;28;19934;-84
2023/09/18 03:28:29;;;;;;;;;;;17.20;99.90;;;;;;4924504;29;20856;-84
2023/09/18 03:30:55;;;;;;;;;;;17.20;99.90;;;;;;4927570;29;20006;-84
2023/09/18 03:33:20;;;;;;;;;;;17.20;99.90;;;;;;4926248;29;20022;-85
2023/09/18 03:35:47;;;;;;;;;;;17.30;99.90;;;;;;4942014;28;20388;-84
2023/09/18 03:38:13;;;;;;;;;;;17.30;99.90;;;;;;4927115;29;19942;-85
2023/09/18 03:40:39;;;;;;;;;;;17.30;99.90;;;;;;4927137;29;19994;-84
2023/09/18 03:43:04;;;;;;;;;;;17.30;99.90;;;;;;4927004;29;19927;-83
2023/09/18 03:45:30;;;;;;;;;;;17.40;99.90;;;;;;4946067;28;19936;-84
2023/09/18 03:47:55;;;;;;;;;;;17.30;99.90;;;;;;4929051;28;19935;-87
2023/09/18 03:50:21;;;;;;;;;;;17.30;99.90;;;;;;4910473;29;20374;-83
2023/09/18 03:52:46;;;;;;;;;;;17.40;99.90;;;;;;4926581;29;19927;-84
2023/09/18 03:55:12;;;;;;;;;;;17.40;99.90;;;;;;4929787;28;19957;-84
2023/09/18 03:57:39;;;;;;;;;;;17.40;99.90;;;;;;4926012;29;19984;-83
2023/09/18 04:00:07;;;;;;;;;;;17.50;99.90;;;;;;4924331;28;20010;-85
2023/09/18 04:02:32;;;;;;;;;;;17.50;99.90;;;;;;4928689;28;20374;-83
2023/09/18 04:04:58;;;;;;;;;;;17.50;99.90;;;;;;4930777;28;19934;-88
2023/09/18 04:07:23;;;;;;;;;;;17.50;99.90;;;;;;4929287;28;19938;-85
2023/09/18 04:09:49;;;;;;;;;;;17.50;99.90;;;;;;4934344;28;20281;-84
2023/09/18 04:12:15;;;;;;;;;;;17.50;99.90;;;;;;4929693;29;19927;-84
2023/09/18 04:14:41;;;;;;;;;;;17.50;99.90;;;;;;4929136;29;19937;-84
2023/09/18 04:17:06;;;;;;;;;;;17.60;99.90;;;;;;4915188;29;20013;-83
2023/09/18 04:19:32;;;;;;;;;;;17.60;99.90;;;;;;4934230;29;19978;-84
2023/09/18 04:21:57;;;;;;;;;;;17.60;99.90;;;;;;4933445;29;19927;-84
2023/09/18 04:24:23;;;;;;;;;;;17.60;99.90;;;;;;4934612;28;19926;-83
2023/09/18 04:26:50;;;;;;;;;;;17.60;99.90;;;;;;4934055;29;19926;-83
2023/09/18 04:29:16;;;;;;;;;;;17.70;99.90;;;;;;4933769;29;20189;-85
2023/09/18 04:31:42;;;;;;;;;;;17.60;99.90;;;;;;4933958;29;20009;-85
2023/09/18 04:34:07;;;;;;;;;;;17.70;99.90;;;;;;4934989;29;19973;-83
2023/09/18 04:36:33;;;;;;;;;;;17.70;99.90;;;;;;4933253;29;19977;-83
2023/09/18 04:38:58;;;;;;;;;;;17.70;99.90;;;;;;4933949;29;19927;-83
2023/09/18 04:41:24;;;;;;;;;;;17.70;99.90;;;;;;4933488;29;20309;-85
2023/09/18 04:43:50;;;;;;;;;;;17.70;99.90;;;;;;4936603;28;19931;-84
2023/09/18 04:46:16;;;;;;;;;;;17.70;99.90;;;;;;4933669;29;19930;-84
2023/09/18 04:48:41;;;;;;;;;;;17.80;99.90;;;;;;4954096;28;19934;-84
2023/09/18 04:51:07;;;;;;;;;;;17.80;99.90;;;;;;4933708;29;20337;-85
2023/09/18 04:53:33;;;;;;;;;;;17.70;99.90;;;;;;4917737;29;19927;-83
2023/09/18 04:55:58;;;;;;;;;;;17.70;99.90;;;;;;4933664;29;20001;-83
2023/09/18 04:58:24;;;;;;;;;;;17.70;99.90;;;;;;4934011;29;19934;-84
2023/09/18 05:00:56;;;;;;;;;;;17.70;99.90;;;;;;4933711;29;19931;-85
2023/09/18 05:03:22;;;;;;;;;;;17.70;99.90;;;;;;4933437;29;20344;-85
2023/09/18 05:05:47;;;;;;;;;;;17.70;99.90;;;;;;4933084;29;19934;-84
2023/09/18 05:08:13;;;;;;;;;;;17.70;99.90;;;;;;4933742;29;19937;-85
2023/09/18 05:10:38;;;;;;;;;;;17.70;99.90;;;;;;4933043;29;19934;-84
2023/09/18 05:13:04;;;;;;;;;;;17.70;99.90;;;;;;4933357;28;19934;-84
2023/09/18 05:15:30;;;;;;;;;;;17.70;99.90;;;;;;4918829;29;19998;-84
2023/09/18 05:17:57;;;;;;;;;;;17.70;99.90;;;;;;4932014;29;20408;-84
2023/09/18 05:20:24;;;;;;;;;;;17.70;99.90;;;;;;4931350;28;19927;-85
2023/09/18 05:22:52;;;;;;;;;;;17.70;99.90;;;;;;4934302;29;20017;-84
2023/09/18 05:25:18;;;;;;;;;;;17.70;99.90;;;;;;4917719;29;20025;-83
2023/09/18 05:27:44;;;;;;;;;;;17.70;99.90;;;;;;4933256;28;20050;-85
2023/09/18 05:30:14;;;;;;;;;;;17.70;99.90;;;;;;4934156;29;19950;-84
2023/09/18 05:32:41;;;;;;;;;;;17.70;99.90;;;;;;4916922;29;20346;-85
2023/09/18 05:35:09;;;;;;;;;;;17.70;99.90;;;;;;4903625;29;19930;-88
2023/09/18 05:37:36;;;;;;;;;;;17.70;99.90;;;;;;4932804;29;19927;-84
2023/09/18 05:40:05;;;;;;;;;;;17.70;99.90;;;;;;4932984;29;19927;-84
2023/09/18 05:42:30;;;;;;;;;;;17.70;99.90;;;;;;4933366;29;19927;-84
2023/09/18 05:44:56;;;;;;;;;;;17.60;99.90;;;;;;4938226;28;20578;-84
2023/09/18 05:47:23;;;;;;;;;;;17.70;99.90;;;;;;4991356;28;19927;-84
2023/09/18 05:49:48;;;;;;;;;;;17.60;99.90;;;;;;4933545;29;19931;-84
2023/09/18 05:52:14;;;;;;;;;;;17.70;99.90;;;;;;4934055;29;19934;-84
2023/09/18 05:54:40;;;;;;;;;;;17.60;99.90;;;;;;4933946;29;20402;-82
2023/09/18 05:57:06;;;;;;;;;;;17.70;99.90;;;;;;4933009;28;19996;-84
2023/09/18 05:59:32;;;;;;;;;;;17.70;99.90;;;;;;4934090;29;19937;-83
2023/09/18 06:01:58;;;;;;;;;;;17.70;99.90;;;;;;4932448;29;20073;-83
2023/09/18 06:04:24;;;;;;;;;;;17.70;99.90;;;;;;4933932;29;19931;-83
2023/09/18 06:06:49;;;;;;;;;;;17.80;99.90;;;;;;4947830;28;19988;-83
2023/09/18 06:09:16;;;;;;;;;;;17.80;99.90;;;;;;4908686;28;19927;-84
2023/09/18 06:11:41;;;;;;;;;;;17.80;99.90;;;;;;4929445;28;20337;-84
2023/09/18 06:14:07;;;;;;;;;;;17.90;99.90;;;;;;4970020;28;19927;-82
2023/09/18 06:16:32;;;;;;;;;;;17.90;99.90;;;;;;4933485;29;19926;-83
2023/09/18 06:19:00;;;;;;;;;;;18.00;99.90;;;;;;4948370;28;19985;-83
2023/09/18 06:21:25;;;;;;;;;;;18.00;99.90;;;;;;4931985;29;19974;-83
2023/09/18 06:23:51;;;;;;;;;;;18.00;99.90;;;;;;4931772;29;19969;-83
2023/09/18 06:26:17;;;;;;;;;;;18.00;99.90;;;;;;4930912;29;19935;-84
2023/09/18 06:28:43;;;;;;;;;;;18.10;99.90;;;;;;4930394;29;20271;-84
2023/09/18 06:31:08;;;;;;;;;;;18.10;99.90;;;;;;4912728;29;19935;-83
2023/09/18 06:33:34;;;;;;;;;;;18.10;99.90;;;;;;4929379;28;19938;-83
2023/09/18 06:36:00;;;;;;;;;;;18.10;99.90;;;;;;4931759;29;19927;-84
2023/09/18 06:38:26;;;;;;;;;;;18.10;99.90;;;;;;4932206;29;19926;-85
2023/09/18 06:40:52;;;;;;;;;;;18.20;99.90;;;;;;4934226;28;19926;-85
2023/09/18 06:43:18;;;;;;;;;;;18.10;99.90;;;;;;4930730;29;20045;-84
2023/09/18 06:45:44;;;;;;;;;;;18.20;99.90;;;;;;4932452;28;20034;-86
2023/09/18 06:48:09;;;;;;;;;;;18.20;99.90;;;;;;4934892;28;19974;-86
2023/09/18 06:50:36;;;;;;;;;;;18.20;99.90;;;;;;4928774;29;19979;-84
2023/09/18 06:53:02;;;;;;;;;;;18.20;99.90;;;;;;4937337;28;19934;-85
2023/09/18 06:55:27;;;;;;;;;;;18.20;99.90;;;;;;4929621;29;19931;-86
2023/09/18 06:57:53;;;;;;;;;;;18.20;99.90;;;;;;4941236;28;19934;-84
2023/09/18 07:00:20;;;;;;;;;;;18.20;99.90;;;;;;4925708;29;19931;-84
2023/09/18 07:02:46;;;;;;;;;;;18.10;99.90;;;;;;4928931;28;19927;-83
2023/09/18 07:05:12;;;;;;;;;;;18.20;99.90;;;;;;4926782;28;20096;-85
2023/09/18 07:07:38;;;;;;;;;;;18.10;99.90;;;;;;4925575;29;20421;-85
2023/09/18 07:10:03;;;;;;;;;;;18.20;99.90;;;;;;4926801;29;19945;-86
2023/09/18 07:12:29;;;;;;;;;;;18.20;99.90;;;;;;4926930;28;19937;-85
2023/09/18 07:14:55;;;;;;;;;;;18.20;99.90;;;;;;4925009;28;20390;-85
2023/09/18 07:17:20;;;;;;;;;;;18.30;99.90;;;;;;4927750;29;19981;-85
2023/09/18 07:19:46;;;;;;;;;;;18.30;99.90;;;;;;4928289;28;19935;-84
2023/09/18 07:22:12;;;;;;;;;;;18.40;99.90;;;;;;4927921;28;19941;-86
2023/09/18 07:24:40;;;;;;;;;;;18.40;99.90;;;;;;4925953;29;19942;-85
2023/09/18 07:27:06;;;;;;;;;;;18.40;99.90;;;;;;4925378;29;19934;-86
2023/09/18 07:29:33;;;;;;;;;;;18.50;99.90;;;;;;4929493;29;19927;-87
2023/09/18 07:32:01;;;;;;;;;;;18.50;99.90;;;;;;4996302;28;19932;-86
2023/09/18 07:34:27;;;;;;;;;;;18.50;99.90;;;;;;4900441;29;19981;-86
2023/09/18 07:36:55;;;;;;;;;;;18.50;99.90;;;;;;4933083;29;19926;-87
2023/09/18 07:39:20;;;;;;;;;;;18.50;99.90;;;;;;4922205;29;19950;-85
2023/09/18 07:41:47;;;;;;;;;;;18.50;99.90;;;;;;4935399;28;19931;-86
2023/09/18 07:44:18;;;;;;;;;;;18.40;99.90;;;;;;4934530;29;19938;-85
2023/09/18 07:46:44;;;;;;;;;;;18.50;99.90;;;;;;4936769;28;19981;-84
2023/09/18 07:49:09;;;;;;;;;;;18.50;99.90;;;;;;4934337;29;19978;-86
2023/09/18 07:51:35;;;;;;;;;;;18.50;99.90;;;;;;4918871;29;19938;-86
2023/09/18 07:54:00;;;;;;;;;;;18.50;99.90;;;;;;4919243;29;19981;-85
2023/09/18 07:56:27;;;;;;;;;;;18.50;99.90;;;;;;4935433;29;19976;-86
2023/09/18 07:58:52;;;;;;;;;;;18.60;99.90;;;;;;4934910;29;20000;-85
2023/09/18 08:01:21;;;;;;;;;;;18.60;99.90;;;;;;4946640;29;19927;-86
2023/09/18 08:03:46;;;;;;;;;;;18.60;99.90;;;;;;4934545;29;20017;-86
2023/09/18 08:06:14;;;;;;;;;;;18.70;99.90;;;;;;4934971;29;20018;-86
2023/09/18 08:08:40;;;;;;;;;;;18.70;99.90;;;;;;4934693;29;20018;-85
2023/09/18 08:11:08;;;;;;;;;;;18.60;99.90;;;;;;4935840;29;19973;-84
2023/09/18 08:13:34;;;;;;;;;;;18.70;99.90;;;;;;4934773;29;20338;-84
2023/09/18 08:16:00;;;;;;;;;;;18.70;99.90;;;;;;5018173;28;19977;-84
2023/09/18 08:18:26;;;;;;;;;;;18.70;99.90;;;;;;4934750;28;20150;-84
2023/09/18 08:20:53;;;;;;;;;;;18.80;99.90;;;;;;4921939;28;19934;-86
2023/09/18 08:23:18;;;;;;;;;;;18.80;99.90;;;;;;4925471;29;19927;-84
2023/09/18 08:25:44;;;;;;;;;;;18.90;99.90;;;;;;4935390;28;19938;-86
2023/09/18 08:28:10;;;;;;;;;;;19.00;99.90;;;;;;4913886;29;20042;-85
2023/09/18 08:30:40;;;;;;;;;;;19.10;99.90;;;;;;4911942;28;19926;-84
2023/09/18 08:33:05;;;;;;;;;;;19.10;99.90;;;;;;4935012;29;20633;-84
2023/09/18 08:35:32;;;;;;;;;;;19.20;99.90;;;;;;4931395;29;20068;-86
2023/09/18 08:37:57;;;;;;;;;;;19.20;99.90;;;;;;4933127;29;19934;-87
2023/09/18 08:40:23;;;;;;;;;;;19.30;99.90;;;;;;4934157;28;19927;-83
2023/09/18 08:42:50;;;;;;;;;;;19.40;99.90;;;;;;4933157;29;19934;-86
2023/09/18 08:45:25;;;;;;;;;;;19.40;99.90;;;;;;4945817;28;20471;-83
2023/09/18 08:47:51;;;;;;;;;;;19.40;99.90;;;;;;4954712;28;19927;-84
2023/09/18 08:50:17;;;;;;;;;;;19.50;99.90;;;;;;4933233;28;19942;-83
2023/09/18 08:52:43;;;;;;;;;;;19.50;99.90;;;;;;4934909;29;19980;-84
2023/09/18 08:55:08;;;;;;;;;;;19.50;99.90;;;;;;4931873;29;19982;-83
2023/09/18 08:57:35;;;;;;;;;;;19.50;99.90;;;;;;4933200;29;20013;-84
2023/09/18 09:00:06;;;;;;;;;;;19.50;99.90;;;;;;4934299;29;19927;-83
2023/09/18 09:02:32;;;;;;;;;;;19.50;99.90;;;;;;4934158;29;19927;-84
2023/09/18 09:04:58;;;;;;;;;;;19.50;99.90;;;;;;4930032;28;19963;-89
2023/09/18 09:07:24;;;;;;;;;;;19.50;99.90;;;;;;4927836;29;19986;-84
2023/09/18 09:09:50;;;;;;;;;;;19.60;99.90;;;;;;4928843;29;19931;-85
2023/09/18 09:12:16;;;;;;;;;;;19.60;99.90;;;;;;4931075;29;19931;-83
2023/09/18 09:15:01;;;;;;;;;;;19.60;99.90;;;;;;4940428;28;19965;-83
2023/09/18 09:17:26;;;;;;;;;;;19.70;99.90;;;;;;4927910;29;19930;-83
2023/09/18 09:20:07;;;;;;;;;;;19.70;99.90;;;;;;4926967;29;19927;-83
2023/09/18 09:22:33;;;;;;;;;;;19.70;99.90;;;;;;4927743;29;20010;-83
2023/09/18 09:24:59;;;;;;;;;;;19.80;99.90;;;;;;4929180;28;19931;-83
2023/09/18 09:27:24;;;;;;;;;;;20.00;99.90;;;;;;4928647;29;19950;-84
2023/09/18 09:29:59;;;;;;;;;;;20.10;99.90;;;;;;4926420;29;19981;-82
2023/09/18 09:32:29;;;;;;;;;;;20.30;99.90;;;;;;4929321;29;19934;-85
2023/09/18 09:34:59;;;;;;;;;;;20.40;99.90;;;;;;4927361;29;19981;-83
2023/09/18 09:37:30;;;;;;;;;;;20.60;99.90;;;;;;4927904;29;20025;-84
2023/09/18 09:39:56;;;;;;;;;;;20.50;99.90;;;;;;4928602;29;20356;-83
2023/09/18 09:42:24;;;;;;;;;;;20.60;99.90;;;;;;4928162;29;19927;-81
2023/09/18 09:45:03;;;;;;;;;;;20.70;99.90;;;;;;4928397;28;19935;-85
2023/09/18 09:47:33;;;;;;;;;;;20.80;99.90;;;;;;4925866;29;19937;-84
2023/09/18 09:50:05;;;;;;;;;;;20.90;99.90;;;;;;4932597;29;19989;-81
2023/09/18 09:52:32;;;;;;;;;;;20.90;99.90;;;;;;4924731;28;19928;-83
2023/09/18 09:54:58;;;;;;;;;;;21.00;99.90;;;;;;4932232;29;20378;-83
2023/09/18 09:57:24;;;;;;;;;;;21.10;99.90;;;;;;4933426;29;19937;-83
2023/09/18 09:59:49;;;;;;;;;;;21.20;99.90;;;;;;4930892;28;19962;-83
2023/09/18 10:02:19;;;;;;;;;;;21.40;99.90;;;;;;4933289;29;19935;-82
2023/09/18 10:04:48;;;;;;;;;;;21.40;99.90;;;;;;4933443;29;19976;-83
2023/09/18 10:07:15;;;;;;;;;;;21.40;99.90;;;;;;4928618;29;19970;-81
2023/09/18 10:09:42;;;;;;;;;;;21.40;99.90;;;;;;4989483;28;19931;-82
2023/09/18 10:12:11;;;;;;;;;;;21.40;99.90;;;;;;4932947;29;20328;-83
2023/09/18 10:14:38;;;;;;;;;;;21.40;99.90;;;;;;4933003;29;19931;-82
2023/09/18 10:17:17;;;;;;;;;;;21.40;99.90;;;;;;4933389;29;19931;-83
2023/09/18 10:19:53;;;;;;;;;;;21.50;99.90;;;;;;4932913;29;19931;-81
2023/09/18 10:22:26;;;;;;;;;;;21.70;99.90;;;;;;4931558;28;19934;-83
2023/09/18 10:24:54;;;;;;;;;;;21.90;99.90;;;;;;4932717;29;20347;-81
2023/09/18 10:27:22;;;;;;;;;;;22.00;99.90;;;;;;4934536;28;19975;-88
2023/09/18 10:29:51;;;;;;;;;;;22.10;99.90;;;;;;4945136;29;19974;-84
2023/09/18 10:32:18;;;;;;;;;;;22.30;99.90;;;;;;4932230;29;19930;-81
2023/09/18 10:34:44;;;;;;;;;;;22.40;99.90;;;;;;4929702;28;20374;-83
2023/09/18 10:37:10;;;;;;;;;;;22.60;99.90;;;;;;4969639;28;19931;-84
2023/09/18 10:39:37;;;;;;;;;;;22.80;99.90;;;;;;4930704;28;19987;-83
2023/09/18 10:42:03;;;;;;;;;;;23.10;99.90;;;;;;4931017;29;19985;-83
2023/09/18 10:44:31;;;;;;;;;;;23.20;99.90;;;;;;4923915;29;19934;-83
2023/09/18 10:46:58;;;;;;;;;;;23.20;99.90;;;;;;4931847;29;20005;-84
2023/09/18 10:49:24;;;;;;;;;;;23.20;99.90;;;;;;4931872;29;19937;-84
2023/09/18 10:51:52;;;;;;;;;;;23.20;99.90;;;;;;4931669;28;19927;-83
2023/09/18 10:54:23;;;;;;;;;;;23.20;99.90;;;;;;4931884;29;19934;-84
2023/09/18 10:56:49;;;;;;;;;;;23.10;99.90;;;;;;4930612;28;19926;-84
2023/09/18 10:59:15;;;;;;;;;;;23.00;99.90;;;;;;4931883;29;20382;-82
2023/09/18 11:01:42;;;;;;;;;;;23.00;99.90;;;;;;4929556;28;19927;-84
2023/09/18 11:04:09;;;;;;;;;;;23.00;99.90;;;;;;4931657;28;19941;-83
2023/09/18 11:07:10;;;;;;;;;;;22.90;99.90;;;;;;4932354;28;19934;-82
2023/09/18 11:09:44;;;;;;;;;;;22.90;99.90;;;;;;4892246;29;20545;-85
2023/09/18 11:12:11;;;;;;;;;;;22.80;99.90;;;;;;4919247;29;19927;-84
2023/09/18 11:14:49;;;;;;;;;;;22.80;99.90;;;;;;4933008;28;20048;-82
2023/09/18 11:17:35;;;;;;;;;;;22.90;99.90;;;;;;4931309;29;20011;-85
2023/09/18 11:20:11;;;;;;;;;;;23.00;99.90;;;;;;4943212;28;19931;-85
2023/09/18 11:22:45;;;;;;;;;;;23.20;99.90;;;;;;4948975;28;19931;-84
2023/09/18 11:25:31;;;;;;;;;;;23.50;99.90;;;;;;4947342;28;19927;-84
2023/09/18 11:27:56;;;;;;;;;;;23.60;99.90;;;;;;4930928;29;20444;-83
2023/09/18 11:30:23;;;;;;;;;;;23.50;99.90;;;;;;4957988;28;20011;-84
2023/09/18 11:32:49;;;;;;;;;;;23.30;99.90;;;;;;4945647;28;19933;-84
2023/09/18 11:35:18;;;;;;;;;;;23.20;99.90;;;;;;4950693;28;19927;-82
2023/09/18 11:37:44;;;;;;;;;;;23.20;99.90;;;;;;4931626;29;19934;-84
2023/09/18 11:40:38;;;;;;;;;;;23.10;99.90;;;;;;4932448;29;19927;-83
2023/09/18 11:43:19;;;;;;;;;;;23.20;99.90;;;;;;4928396;28;19942;-84
2023/09/18 11:45:49;;;;;;;;;;;23.00;99.90;;;;;;4932599;28;19926;-84
2023/09/18 11:48:14;;;;;;;;;;;22.90;99.90;;;;;;4933597;28;20006;-83
2023/09/18 11:50:41;;;;;;;;;;;22.60;99.90;;;;;;4934136;28;19977;-82
2023/09/18 11:53:06;;;;;;;;;;;22.50;99.90;;;;;;4922466;28;19927;-85
2023/09/18 11:55:33;;;;;;;;;;;22.30;99.90;;;;;;4932102;29;19931;-83
2023/09/18 11:58:01;;;;;;;;;;;22.20;99.90;;;;;;4932702;28;19927;-83
2023/09/18 12:00:28;;;;;;;;;;;22.20;99.90;;;;;;4929014;29;19931;-84
2023/09/18 12:02:55;;;;;;;;;;;22.30;99.90;;;;;;4931792;29;20009;-85
2023/09/18 12:05:20;;;;;;;;;;;22.30;99.90;;;;;;4931909;29;19931;-84
2023/09/18 12:07:47;;;;;;;;;;;22.30;99.90;;;;;;4931470;29;20033;-84
2023/09/18 12:10:15;;;;;;;;;;;22.30;99.90;;;;;;4929964;29;19927;-84
2023/09/18 12:12:42;;;;;;;;;;;22.20;99.90;;;;;;4926263;28;19930;-83
2023/09/18 12:15:08;;;;;;;;;;;22.10;99.90;;;;;;4930788;28;19937;-83
2023/09/18 12:17:34;;;;;;;;;;;22.10;99.90;;;;;;4931797;29;20271;-83
2023/09/18 12:20:00;;;;;;;;;;;22.20;99.90;;;;;;4930430;29;19946;-85
2023/09/18 12:22:26;;;;;;;;;;;22.60;99.90;;;;;;4933958;28;19934;-83
2023/09/18 12:24:52;;;;;;;;;;;22.80;99.90;;;;;;4934987;29;19927;-82
2023/09/18 12:27:17;;;;;;;;;;;23.10;99.90;;;;;;4937644;28;19938;-85
2023/09/18 12:29:43;;;;;;;;;;;23.30;99.90;;;;;;4939346;28;19974;-85
2023/09/18 12:32:13;;;;;;;;;;;23.30;99.90;;;;;;4933576;29;20376;-84
2023/09/18 12:34:40;;;;;;;;;;;23.10;99.90;;;;;;4936106;28;20371;-85
2023/09/18 12:37:08;;;;;;;;;;;23.10;99.90;;;;;;4927268;29;20017;-84
2023/09/18 12:39:34;;;;;;;;;;;23.10;99.90;;;;;;4931114;29;19973;-85
2023/09/18 12:42:00;;;;;;;;;;;23.20;99.90;;;;;;4932954;29;19931;-84
2023/09/18 12:44:26;;;;;;;;;;;23.40;99.90;;;;;;4934405;29;19938;-85
2023/09/18 12:46:52;;;;;;;;;;;23.60;99.90;;;;;;4934843;29;20693;-86
2023/09/18 12:49:21;;;;;;;;;;;23.70;99.90;;;;;;4934841;29;20305;-83
2023/09/18 12:52:00;;;;;;;;;;;23.80;99.90;;;;;;4932784;29;19931;-84
2023/09/18 12:54:54;;;;;;;;;;;24.00;99.90;;;;;;4934537;29;19934;-85
2023/09/18 12:57:20;;;;;;;;;;;24.00;99.90;;;;;;4936056;28;20018;-84
2023/09/18 12:59:46;;;;;;;;;;;24.10;99.90;;;;;;4934445;29;20084;-84
2023/09/18 13:02:16;;;;;;;;;;;24.10;99.90;;;;;;4932852;28;19933;-84
2023/09/18 13:04:50;;;;;;;;;;;24.20;99.90;;;;;;4934002;29;19926;-84
2023/09/18 13:07:17;;;;;;;;;;;24.20;99.90;;;;;;4935439;28;19931;-83
2023/09/18 13:09:42;;;;;;;;;;;24.30;99.90;;;;;;4934300;29;19970;-84
2023/09/18 13:12:08;;;;;;;;;;;24.30;99.90;;;;;;4933306;29;20393;-84
2023/09/18 13:14:52;;;;;;;;;;;24.20;99.90;;;;;;4934681;28;20010;-84
2023/09/18 13:17:18;;;;;;;;;;;24.20;99.90;;;;;;4934233;29;20013;-84
2023/09/18 13:19:44;;;;;;;;;;;24.20;99.90;;;;;;4931499;29;19933;-84
2023/09/18 13:22:09;;;;;;;;;;;24.20;99.90;;;;;;4932718;29;19931;-83
2023/09/18 13:24:35;;;;;;;;;;;24.20;99.90;;;;;;4934117;29;19927;-83
2023/09/18 13:27:00;;;;;;;;;;;24.20;99.90;;;;;;4933901;29;19927;-85
2023/09/18 13:29:26;;;;;;;;;;;24.20;99.90;;;;;;4932186;28;20541;-86
2023/09/18 13:31:52;;;;;;;;;;;24.20;99.90;;;;;;4934019;29;19927;-85
2023/09/18 13:34:21;;;;;;;;;;;24.30;99.90;;;;;;4932315;29;19974;-84
2023/09/18 13:36:47;;;;;;;;;;;24.30;99.90;;;;;;4968881;28;20355;-86
2023/09/18 13:39:13;;;;;;;;;;;24.10;99.90;;;;;;4960770;28;20018;-84
2023/09/18 13:41:40;;;;;;;;;;;23.90;99.90;;;;;;4932876;29;19927;-83
2023/09/18 13:44:06;;;;;;;;;;;24.00;99.90;;;;;;4931271;29;19938;-84
2023/09/18 13:46:35;;;;;;;;;;;24.10;99.90;;;;;;4929742;29;19931;-85
2023/09/18 13:49:04;;;;;;;;;;;24.10;99.90;;;;;;4924251;29;20013;-85
2023/09/18 13:51:31;;;;;;;;;;;24.10;99.90;;;;;;4932983;29;20755;-83
2023/09/18 13:53:57;;;;;;;;;;;24.20;99.90;;;;;;4934293;28;19935;-84
2023/09/18 13:56:24;;;;;;;;;;;24.20;99.90;;;;;;4933797;29;20374;-82
2023/09/18 13:58:50;;;;;;;;;;;24.00;99.90;;;;;;4933363;29;19934;-82
2023/09/18 14:01:16;;;;;;;;;;;23.90;99.90;;;;;;4934308;29;20362;-84
2023/09/18 14:03:45;;;;;;;;;;;23.90;99.90;;;;;;4922621;28;19926;-84
2023/09/18 14:06:10;;;;;;;;;;;23.90;99.90;;;;;;4939900;29;19995;-84
2023/09/18 14:08:38;;;;;;;;;;;24.00;99.90;;;;;;4988783;28;20334;-84
2023/09/18 14:11:06;;;;;;;;;;;24.20;99.90;;;;;;4934969;28;19954;-85
2023/09/18 14:13:32;;;;;;;;;;;24.40;99.90;;;;;;4974718;28;19926;-84
2023/09/18 14:15:58;;;;;;;;;;;24.50;99.90;;;;;;4941834;28;19990;-84